Time;durP1;ratioP1;P1;durP2;ratioP2;P2;SDS_P1;SDS_P2;PMS_P1;PMS_P2;Temp;Humidity;BMP_temperature;BMP_pressure;BME280_temperature;BME280_humidity;BME280_pressure;Samples;Min_cycle;Max_cycle;Signal;HPM_P1;HPM_P2
2021/05/03 00:00:32;;;;;;;5.33;2.60;;;5.40;99.90;;;;;;4988820;28;20230;-53
2021/05/03 00:02:59;;;;;;;6.87;3.00;;;5.40;99.90;;;;;;4978176;28;20246;-53
2021/05/03 00:05:27;;;;;;;5.87;3.13;;;5.40;99.90;;;;;;4969106;28;20257;-51
2021/05/03 00:07:55;;;;;;;4.03;3.00;;;5.40;99.90;;;;;;4971004;28;20644;-51
2021/05/03 00:10:23;;;;;;;5.07;3.10;;;5.40;99.90;;;;;;4972290;28;20705;-52
2021/05/03 00:12:51;;;;;;;5.47;3.63;;;5.40;99.90;;;;;;4970571;28;20237;-51
2021/05/03 00:15:19;;;;;;;5.87;3.10;;;5.50;99.90;;;;;;4977398;28;20237;-51
2021/05/03 00:17:46;;;;;;;3.83;2.80;;;5.50;99.90;;;;;;4990386;28;20689;-52
2021/05/03 00:20:15;;;;;;;4.37;2.87;;;5.50;99.90;;;;;;4987083;28;20248;-51
2021/05/03 00:22:49;;;;;;;4.83;3.20;;;5.40;99.90;;;;;;4997309;28;20593;-51
2021/05/03 00:25:17;;;;;;;6.13;3.00;;;5.30;99.90;;;;;;4974855;28;20296;-53
2021/05/03 00:27:44;;;;;;;4.00;2.63;;;5.30;99.90;;;;;;4970264;28;20242;-51
2021/05/03 00:30:15;;;;;;;5.20;3.03;;;5.30;99.90;;;;;;4969881;28;20258;-51
2021/05/03 00:32:43;;;;;;;5.13;2.90;;;5.30;99.90;;;;;;4969634;28;20242;-52
2021/05/03 00:35:11;;;;;;;3.67;2.77;;;5.30;99.90;;;;;;4972678;28;20251;-52
2021/05/03 00:37:39;;;;;;;3.33;2.70;;;5.30;99.90;;;;;;4986098;28;20241;-52
2021/05/03 00:40:08;;;;;;;3.20;2.70;;;5.30;99.90;;;;;;4988837;28;20238;-51
2021/05/03 00:42:36;;;;;;;3.53;2.80;;;5.30;99.90;;;;;;4989056;28;20273;-52
2021/05/03 00:45:09;;;;;;;4.20;3.00;;;5.30;99.90;;;;;;4988850;28;20238;-51
2021/05/03 00:47:39;;;;;;;3.43;2.83;;;5.40;99.90;;;;;;4989203;28;20242;-52
2021/05/03 00:50:09;;;;;;;5.87;3.17;;;5.40;99.90;;;;;;4986972;28;20763;-53
2021/05/03 00:52:40;;;;;;;4.27;2.80;;;5.40;99.90;;;;;;4969505;28;20329;-51
2021/05/03 00:55:09;;;;;;;3.07;2.47;;;5.40;99.90;;;;;;4969830;28;20744;-51
2021/05/03 00:57:38;;;;;;;3.20;2.90;;;5.30;99.90;;;;;;4969768;28;20238;-52
2021/05/03 01:00:12;;;;;;;3.00;2.57;;;5.30;99.90;;;;;;4969242;28;20242;-52
2021/05/03 01:02:41;;;;;;;6.17;2.23;;;5.20;99.90;;;;;;4988437;28;20621;-51
2021/05/03 01:05:10;;;;;;;5.53;2.93;;;5.20;99.90;;;;;;4989355;28;20252;-51
2021/05/03 01:07:42;;;;;;;5.20;2.53;;;5.20;99.90;;;;;;4988262;28;20241;-52
2021/05/03 01:10:11;;;;;;;4.57;2.53;;;5.20;99.90;;;;;;4987211;28;20320;-53
2021/05/03 01:12:39;;;;;;;4.77;2.83;;;5.20;99.90;;;;;;4988323;28;20279;-51
2021/05/03 01:15:08;;;;;;;6.37;2.70;;;5.10;99.90;;;;;;4995099;28;20612;-51
2021/05/03 01:17:37;;;;;;;6.40;2.73;;;5.10;99.90;;;;;;4996558;28;20232;-52
2021/05/03 01:20:10;;;;;;;3.67;2.90;;;5.10;99.90;;;;;;4999893;28;20235;-52
2021/05/03 01:22:39;;;;;;;3.83;2.80;;;5.10;99.90;;;;;;5004464;28;20625;-52
2021/05/03 01:25:10;;;;;;;5.00;2.90;;;5.10;99.90;;;;;;4988990;28;20229;-51
2021/05/03 01:27:37;;;;;;;7.17;2.90;;;5.20;99.90;;;;;;4975775;28;20295;-53
2021/05/03 01:30:07;;;;;;;4.23;2.70;;;5.20;99.90;;;;;;4969793;28;20241;-52
2021/05/03 01:32:35;;;;;;;3.93;2.90;;;5.20;99.90;;;;;;4968994;28;20285;-52
2021/05/03 01:35:03;;;;;;;3.63;2.70;;;5.20;99.90;;;;;;4969598;28;20285;-52
2021/05/03 01:37:30;;;;;;;5.20;2.70;;;5.10;99.90;;;;;;4980427;28;20241;-51
2021/05/03 01:39:58;;;;;;;3.60;2.13;;;5.10;99.90;;;;;;4988020;28;20264;-52
2021/05/03 01:42:26;;;;;;;6.03;2.70;;;5.00;99.90;;;;;;4988263;28;20236;-55
2021/05/03 01:44:59;;;;;;;2.97;2.37;;;5.00;99.90;;;;;;4988994;28;20252;-52
2021/05/03 01:47:27;;;;;;;5.70;2.40;;;5.10;99.90;;;;;;4976831;28;20747;-52
2021/05/03 01:49:55;;;;;;;4.63;2.50;;;5.00;99.90;;;;;;4973942;28;20331;-51
2021/05/03 01:52:22;;;;;;;3.73;2.77;;;5.10;99.90;;;;;;4987974;28;20291;-51
2021/05/03 01:54:52;;;;;;;4.17;2.37;;;5.10;99.90;;;;;;4988933;28;20318;-51
2021/05/03 01:57:20;;;;;;;8.33;2.87;;;5.10;99.90;;;;;;4988601;28;20260;-51
2021/05/03 01:59:50;;;;;;;3.60;2.50;;;5.10;99.90;;;;;;4984612;28;20589;-51
2021/05/03 02:02:18;;;;;;;4.90;2.87;;;5.10;99.90;;;;;;4968634;28;20242;-51
2021/05/03 02:04:45;;;;;;;3.60;2.30;;;5.10;99.90;;;;;;4970318;28;20242;-52
2021/05/03 02:07:15;;;;;;;5.53;2.70;;;5.00;99.90;;;;;;4970149;28;20242;-52
2021/05/03 02:09:43;;;;;;;3.03;2.63;;;5.00;99.90;;;;;;4968913;28;20718;-53
2021/05/03 02:12:11;;;;;;;4.57;2.33;;;5.00;99.90;;;;;;4991211;28;20248;-52
2021/05/03 02:14:41;;;;;;;3.80;2.40;;;5.00;99.90;;;;;;4987775;28;20233;-52
2021/05/03 02:17:11;;;;;;;4.30;2.60;;;5.00;99.90;;;;;;4993604;28;20287;-52
2021/05/03 02:19:40;;;;;;;3.63;2.63;;;5.10;99.90;;;;;;4980601;28;20741;-53
2021/05/03 02:22:07;;;;;;;3.80;2.53;;;5.00;99.90;;;;;;4988003;28;20724;-52
2021/05/03 02:24:35;;;;;;;3.63;2.77;;;5.00;99.90;;;;;;4992030;28;20262;-52
2021/05/03 02:27:02;;;;;;;5.67;3.13;;;5.00;99.90;;;;;;4992001;28;20574;-52
2021/05/03 02:29:29;;;;;;;5.40;3.30;;;4.90;99.90;;;;;;4991628;28;20245;-51
2021/05/03 02:31:57;;;;;;;8.93;3.53;;;4.90;99.90;;;;;;4990623;28;20701;-51
2021/05/03 02:34:25;;;;;;;5.83;3.20;;;4.80;99.90;;;;;;4992061;28;20716;-52
2021/05/03 02:36:55;;;;;;;3.93;3.10;;;4.80;99.90;;;;;;4991916;28;20243;-51
2021/05/03 02:39:23;;;;;;;4.63;3.00;;;4.80;99.90;;;;;;4991960;28;20689;-51
2021/05/03 02:41:50;;;;;;;6.60;3.17;;;4.80;99.90;;;;;;4990887;28;20233;-51
2021/05/03 02:44:17;;;;;;;6.17;3.20;;;4.70;99.90;;;;;;4973498;28;20269;-52
2021/05/03 02:46:44;;;;;;;4.83;3.30;;;4.70;99.90;;;;;;4971895;28;20293;-51
2021/05/03 02:49:13;;;;;;;4.33;3.10;;;4.60;99.90;;;;;;4971912;28;20252;-51
2021/05/03 02:51:41;;;;;;;5.30;3.30;;;4.60;99.90;;;;;;4980294;28;20240;-52
2021/05/03 02:54:09;;;;;;;4.27;3.10;;;4.60;99.90;;;;;;4991651;28;20246;-51
2021/05/03 02:56:36;;;;;;;5.90;3.50;;;4.70;99.90;;;;;;4990046;28;20660;-53
2021/05/03 02:59:04;;;;;;;3.97;3.07;;;4.60;99.90;;;;;;4971228;28;20258;-51
2021/05/03 03:01:31;;;;;;;4.93;3.07;;;4.70;99.90;;;;;;4971582;28;20645;-51
2021/05/03 03:03:59;;;;;;;5.10;3.00;;;4.60;99.90;;;;;;4972656;28;20242;-51
2021/05/03 03:06:27;;;;;;;3.77;2.93;;;4.60;99.90;;;;;;4972188;28;20228;-53
2021/05/03 03:08:54;;;;;;;4.87;3.13;;;4.70;99.90;;;;;;4996012;28;20230;-52
2021/05/03 03:11:22;;;;;;;5.37;3.20;;;4.80;99.90;;;;;;4996266;28;20240;-52
2021/05/03 03:13:50;;;;;;;4.93;3.30;;;4.90;99.90;;;;;;4984466;28;20241;-53
2021/05/03 03:16:22;;;;;;;6.53;3.60;;;4.90;99.90;;;;;;4999235;28;20236;-51
2021/05/03 03:18:49;;;;;;;6.17;3.67;;;4.90;99.90;;;;;;5010444;28;20244;-53
2021/05/03 03:21:17;;;;;;;6.53;3.27;;;4.80;99.90;;;;;;5009579;28;20248;-52
2021/05/03 03:23:46;;;;;;;5.33;3.30;;;4.80;99.90;;;;;;5010306;28;20245;-52
2021/05/03 03:26:13;;;;;;;3.50;3.00;;;4.70;99.90;;;;;;5009844;28;20233;-51
2021/05/03 03:28:40;;;;;;;4.50;3.20;;;4.60;99.90;;;;;;5009823;28;20252;-53
2021/05/03 03:31:07;;;;;;;4.97;3.72;;;4.60;99.90;;;;;;5008923;28;20439;-53
2021/05/03 03:33:35;;;;;;;4.77;3.37;;;4.60;99.90;;;;;;4991918;28;20233;-51
2021/05/03 03:36:03;;;;;;;4.57;3.53;;;4.60;99.90;;;;;;4990844;28;20233;-51
2021/05/03 03:38:30;;;;;;;3.30;3.00;;;4.50;99.90;;;;;;5005306;28;20692;-52
2021/05/03 03:40:58;;;;;;;5.67;3.33;;;4.60;99.90;;;;;;4987989;28;20315;-52
2021/05/03 03:43:26;;;;;;;5.00;3.20;;;4.50;99.90;;;;;;4990698;28;20721;-51
2021/05/03 03:45:54;;;;;;;3.73;3.17;;;4.50;99.90;;;;;;4990813;28;20256;-51
2021/05/03 03:48:22;;;;;;;3.70;3.00;;;4.50;99.90;;;;;;4990472;28;20600;-52
2021/05/03 03:50:49;;;;;;;5.40;3.30;;;4.50;99.90;;;;;;4989705;28;20244;-52
2021/05/03 03:53:16;;;;;;;5.20;3.20;;;4.50;99.90;;;;;;4978233;28;20479;-52
2021/05/03 03:55:43;;;;;;;6.90;3.33;;;4.40;99.90;;;;;;4970558;28;20245;-51
2021/05/03 03:58:12;;;;;;;4.60;3.03;;;4.40;99.90;;;;;;4973239;28;20641;-51
2021/05/03 04:00:39;;;;;;;5.43;3.10;;;4.40;99.90;;;;;;4969982;28;20238;-52
2021/05/03 04:03:09;;;;;;;4.30;3.43;;;4.40;99.90;;;;;;4970325;28;20239;-52
2021/05/03 04:05:54;;;;;;;3.43;3.13;;;4.40;99.90;;;;;;4975499;28;20232;-51
2021/05/03 04:08:28;;;;;;;3.63;2.93;;;4.40;99.90;;;;;;4995025;28;20611;-51
2021/05/03 04:11:03;;;;;;;3.13;2.83;;;4.40;99.90;;;;;;4987442;28;20247;-52
2021/05/03 04:13:48;;;;;;;5.97;3.27;;;4.40;99.90;;;;;;4996785;28;20267;-51
2021/05/03 04:21:58;;;;;;;3.37;2.77;;;4.40;99.90;;;;;;4989194;28;22991;-52
2021/05/03 04:24:28;;;;;;;4.20;3.23;;;4.40;99.90;;;;;;4989615;28;20321;-52
2021/05/03 04:26:55;;;;;;;5.20;3.03;;;4.40;99.90;;;;;;4990194;28;20257;-53
2021/05/03 04:29:23;;;;;;;3.43;3.13;;;4.40;99.90;;;;;;4986653;28;20241;-51
2021/05/03 04:31:50;;;;;;;4.60;3.30;;;4.40;99.90;;;;;;4989034;28;20234;-52
2021/05/03 04:34:18;;;;;;;4.73;2.73;;;4.40;99.90;;;;;;4989214;28;20314;-51
2021/05/03 04:36:45;;;;;;;3.27;2.87;;;4.30;99.90;;;;;;4989628;28;20320;-52
2021/05/03 04:39:12;;;;;;;3.83;3.10;;;4.30;99.90;;;;;;4989226;28;20244;-51
2021/05/03 04:41:40;;;;;;;3.90;2.60;;;4.30;99.90;;;;;;4987638;28;20701;-52
2021/05/03 04:44:07;;;;;;;4.33;3.00;;;4.30;99.90;;;;;;4989437;28;20229;-52
2021/05/03 04:46:35;;;;;;;4.57;3.00;;;4.40;99.90;;;;;;4989140;28;20619;-53
2021/05/03 04:49:03;;;;;;;5.17;2.70;;;4.50;99.90;;;;;;4989477;28;20329;-53
2021/05/03 04:51:30;;;;;;;3.43;2.70;;;4.50;99.90;;;;;;4988134;28;20551;-52
2021/05/03 04:53:57;;;;;;;3.63;3.00;;;4.60;99.90;;;;;;4989488;28;20241;-51
2021/05/03 04:56:24;;;;;;;4.90;3.43;;;4.60;99.90;;;;;;4983613;28;20485;-52
2021/05/03 04:58:52;;;;;;;4.10;3.10;;;4.80;99.90;;;;;;4969584;28;20290;-54
2021/05/03 05:01:19;;;;;;;5.47;3.37;;;4.70;99.90;;;;;;4968559;28;20768;-52
2021/05/03 05:03:47;;;;;;;3.83;3.13;;;4.80;99.90;;;;;;4976783;28;20657;-51
2021/05/03 05:06:14;;;;;;;3.67;3.17;;;4.80;99.90;;;;;;4991127;28;20245;-51
2021/05/03 05:08:42;;;;;;;4.40;3.70;;;4.80;99.90;;;;;;4983135;28;20245;-52
2021/05/03 05:11:09;;;;;;;5.23;3.87;;;4.90;99.90;;;;;;4981742;28;20484;-52
2021/05/03 05:13:36;;;;;;;6.93;4.40;;;5.00;99.90;;;;;;4971928;28;20286;-54
2021/05/03 05:16:06;;;;;;;5.23;4.17;;;5.20;99.90;;;;;;4982858;28;20245;-53
2021/05/03 05:18:34;;;;;;;6.17;4.60;;;5.20;99.90;;;;;;4988310;28;20241;-52
2021/05/03 05:21:03;;;;;;;6.40;4.63;;;5.30;99.90;;;;;;4988099;28;20237;-52
2021/05/03 05:23:30;;;;;;;7.67;5.10;;;5.40;99.90;;;;;;4988415;28;20259;-52
2021/05/03 05:25:57;;;;;;;6.27;4.37;;;5.60;99.90;;;;;;4987591;28;20303;-53
2021/05/03 05:28:25;;;;;;;7.23;4.73;;;5.70;99.90;;;;;;4988945;28;20604;-52
2021/05/03 05:30:52;;;;;;;6.13;4.43;;;5.70;99.90;;;;;;4976989;28;20691;-52
2021/05/03 05:33:19;;;;;;;7.00;4.33;;;5.90;99.90;;;;;;4982217;28;20327;-51
2021/05/03 05:35:46;;;;;;;5.27;4.30;;;6.10;99.90;;;;;;4983242;28;20239;-52
2021/05/03 05:38:15;;;;;;;7.20;4.00;;;6.20;99.90;;;;;;4980882;28;20245;-52
2021/05/03 05:40:42;;;;;;;5.93;3.73;;;6.40;99.90;;;;;;4971761;28;20274;-52
2021/05/03 05:43:09;;;;;;;4.50;3.97;;;6.60;99.90;;;;;;4987583;28;20241;-52
2021/05/03 05:45:37;;;;;;;4.97;3.90;;;6.70;99.90;;;;;;4987048;28;20234;-52
2021/05/03 05:48:05;;;;;;;5.77;3.90;;;6.80;99.90;;;;;;4987423;28;20685;-52
2021/05/03 05:50:33;;;;;;;4.50;3.77;;;6.90;99.90;;;;;;5002535;28;20237;-52
2021/05/03 05:53:05;;;;;;;4.87;3.43;;;7.10;99.90;;;;;;4990657;28;20249;-52
2021/05/03 05:55:34;;;;;;;3.77;3.37;;;7.30;99.90;;;;;;4992062;28;20663;-52
2021/05/03 05:58:01;;;;;;;3.70;3.30;;;7.30;99.90;;;;;;4992678;28;20237;-51
2021/05/03 06:00:28;;;;;;;4.80;3.20;;;7.50;99.90;;;;;;4988874;28;20691;-52
2021/05/03 06:02:56;;;;;;;5.97;3.00;;;7.70;99.90;;;;;;4998622;28;20231;-51
2021/05/03 06:05:24;;;;;;;3.17;2.87;;;7.80;99.90;;;;;;4997067;28;20280;-51
2021/05/03 06:07:52;;;;;;;4.50;3.37;;;8.00;99.90;;;;;;5003589;28;20237;-51
2021/05/03 06:10:19;;;;;;;4.70;3.03;;;8.30;99.90;;;;;;5000559;28;20698;-52
2021/05/03 06:12:47;;;;;;;3.80;3.20;;;8.40;99.90;;;;;;4991445;28;20245;-52
2021/05/03 06:15:15;;;;;;;3.57;2.90;;;8.50;99.90;;;;;;4986080;28;20244;-53
2021/05/03 06:17:42;;;;;;;3.33;3.03;;;8.60;99.90;;;;;;4974059;28;20238;-51
2021/05/03 06:20:11;;;;;;;3.27;2.93;;;8.80;99.90;;;;;;4972028;28;20249;-52
2021/05/03 06:22:39;;;;;;;5.57;2.57;;;9.00;99.90;;;;;;4983682;28;20243;-51
2021/05/03 06:25:08;;;;;;;4.40;2.50;;;9.30;99.90;;;;;;4991233;28;20230;-51
2021/05/03 06:27:35;;;;;;;3.97;2.93;;;9.40;99.90;;;;;;4991935;28;20238;-52
2021/05/03 06:30:06;;;;;;;4.47;2.67;;;9.50;99.90;;;;;;4991388;28;20891;-51
2021/05/03 06:32:33;;;;;;;5.10;2.90;;;9.80;99.90;;;;;;4991222;28;20765;-51
2021/05/03 06:35:00;;;;;;;4.57;3.00;;;10.10;99.90;;;;;;4992013;28;20245;-52
2021/05/03 06:37:28;;;;;;;3.60;2.50;;;10.40;99.90;;;;;;4991708;28;20246;-52
2021/05/03 06:39:55;;;;;;;4.53;2.60;;;10.20;99.90;;;;;;4991360;28;20709;-51
2021/05/03 06:42:22;;;;;;;3.87;2.63;;;9.90;99.90;;;;;;4991056;28;20238;-51
2021/05/03 06:44:50;;;;;;;3.83;2.87;;;9.80;99.90;;;;;;4991524;28;20253;-53
2021/05/03 06:47:19;;;;;;;5.03;2.77;;;9.70;99.90;;;;;;4988341;28;20723;-51
2021/05/03 06:49:46;;;;;;;3.23;2.60;;;9.80;99.90;;;;;;4990830;28;20246;-51
2021/05/03 06:52:13;;;;;;;4.70;2.70;;;9.80;99.90;;;;;;4990618;28;20245;-52
2021/05/03 06:54:42;;;;;;;5.03;2.60;;;9.60;99.90;;;;;;4991470;28;20293;-52
2021/05/03 06:57:09;;;;;;;6.50;2.60;;;9.40;99.90;;;;;;4991390;28;20603;-51
2021/05/03 06:59:36;;;;;;;3.00;2.70;;;9.20;99.90;;;;;;4979687;28;20322;-52
2021/05/03 07:02:05;;;;;;;3.13;2.73;;;9.20;99.90;;;;;;4991418;28;20656;-51
2021/05/03 07:04:34;;;;;;;2.93;2.63;;;9.20;99.90;;;;;;4999898;28;20265;-51
2021/05/03 07:07:01;;;;;;;3.23;2.63;;;9.20;99.90;;;;;;4995745;28;20242;-51
2021/05/03 07:09:29;;;;;;;3.17;2.73;;;9.20;99.90;;;;;;5005616;28;20241;-51
2021/05/03 07:11:57;;;;;;;2.83;2.63;;;9.10;99.90;;;;;;4990588;28;20238;-51
2021/05/03 07:14:24;;;;;;;4.63;2.90;;;9.00;99.90;;;;;;4991360;28;20312;-53
2021/05/03 07:16:52;;;;;;;3.27;2.97;;;8.90;99.90;;;;;;4991380;28;20714;-51
2021/05/03 07:19:19;;;;;;;5.63;3.03;;;8.90;99.90;;;;;;4990313;28;20236;-53
2021/05/03 07:21:47;;;;;;;4.43;3.17;;;8.90;99.90;;;;;;4988207;28;20640;-51
2021/05/03 07:24:15;;;;;;;3.37;3.00;;;9.00;99.90;;;;;;4991147;28;20247;-51
2021/05/03 07:26:43;;;;;;;5.20;3.70;;;9.10;99.90;;;;;;4990541;28;20237;-52
2021/05/03 07:29:10;;;;;;;4.07;3.20;;;9.10;99.90;;;;;;4976996;28;20259;-51
2021/05/03 07:31:38;;;;;;;4.00;3.50;;;9.20;99.90;;;;;;4970399;28;20259;-51
2021/05/03 07:34:05;;;;;;;3.93;3.20;;;9.10;99.90;;;;;;4970903;28;20715;-51
2021/05/03 07:36:33;;;;;;;3.93;3.40;;;9.10;99.90;;;;;;4976102;28;20262;-51
2021/05/03 07:39:01;;;;;;;4.87;3.30;;;9.00;99.90;;;;;;4990735;28;20226;-52
2021/05/03 07:41:28;;;;;;;5.50;3.20;;;9.00;99.90;;;;;;4989634;28;20721;-51
2021/05/03 07:43:56;;;;;;;4.47;3.23;;;9.00;99.90;;;;;;4991065;28;20263;-52
2021/05/03 07:46:25;;;;;;;3.53;3.10;;;9.10;99.90;;;;;;4990368;28;20246;-51
2021/05/03 07:48:53;;;;;;;3.53;3.20;;;9.20;99.90;;;;;;4990309;28;20249;-51
2021/05/03 07:51:21;;;;;;;6.17;3.30;;;9.40;99.90;;;;;;4989471;28;20258;-52
2021/05/03 07:53:48;;;;;;;4.17;3.43;;;9.50;99.90;;;;;;4989291;28;20241;-51
2021/05/03 07:56:17;;;;;;;4.30;3.30;;;9.60;99.90;;;;;;4997349;28;20664;-51
2021/05/03 07:58:47;;;;;;;5.00;3.13;;;9.80;99.90;;;;;;4995036;28;20277;-52
2021/05/03 08:01:14;;;;;;;3.87;3.50;;;9.90;99.90;;;;;;4983412;28;20823;-52
2021/05/03 08:03:43;;;;;;;3.63;3.13;;;9.90;99.90;;;;;;4997923;28;20223;-51
2021/05/03 08:06:13;;;;;;;3.57;2.93;;;9.70;99.90;;;;;;5005322;28;20246;-52
2021/05/03 08:08:41;;;;;;;3.90;3.20;;;9.60;99.90;;;;;;4989761;28;20234;-52
2021/05/03 08:11:08;;;;;;;3.90;3.30;;;9.50;99.90;;;;;;4989057;28;20261;-51
2021/05/03 08:13:37;;;;;;;3.40;3.10;;;9.50;99.90;;;;;;4976178;28;20277;-51
2021/05/03 08:16:08;;;;;;;4.17;3.37;;;9.50;99.90;;;;;;4983885;28;20235;-52
2021/05/03 08:18:35;;;;;;;3.93;3.33;;;9.50;99.90;;;;;;4981874;28;20238;-51
2021/05/03 08:21:04;;;;;;;4.10;3.63;;;9.40;99.90;;;;;;4983246;28;20711;-51
2021/05/03 08:23:31;;;;;;;4.40;3.50;;;9.20;99.90;;;;;;4984072;28;20703;-51
2021/05/03 08:25:59;;;;;;;4.10;3.70;;;9.10;99.90;;;;;;4984030;28;20235;-51
2021/05/03 08:28:26;;;;;;;4.30;3.73;;;9.00;99.90;;;;;;4985025;28;20244;-51
2021/05/03 08:30:54;;;;;;;5.07;3.63;;;8.80;99.90;;;;;;4983520;28;20598;-51
2021/05/03 08:33:22;;;;;;;4.80;3.60;;;8.60;99.90;;;;;;4982153;28;20248;-51
2021/05/03 08:35:49;;;;;;;4.83;3.67;;;8.50;99.90;;;;;;4983002;28;20270;-51
2021/05/03 08:38:18;;;;;;;5.47;4.40;;;8.50;99.90;;;;;;4985556;28;20267;-51
2021/05/03 08:40:46;;;;;;;4.60;4.20;;;8.40;99.90;;;;;;4985007;28;20238;-53
2021/05/03 08:43:13;;;;;;;5.00;4.47;;;8.40;99.90;;;;;;4982624;28;20270;-51
2021/05/03 08:45:41;;;;;;;5.60;4.57;;;8.40;99.90;;;;;;4983025;28;20233;-52
2021/05/03 08:48:16;;;;;;;5.53;4.90;;;8.50;99.90;;;;;;4984906;28;20746;-52
2021/05/03 08:50:57;;;;;;;7.20;5.37;;;8.50;99.90;;;;;;4982340;28;20329;-51
2021/05/03 08:53:30;;;;;;;6.23;4.80;;;8.50;99.90;;;;;;4984085;28;20244;-52
2021/05/03 08:55:58;;;;;;;5.50;5.00;;;8.60;99.90;;;;;;4980170;28;20246;-52
2021/05/03 08:58:27;;;;;;;5.70;5.10;;;8.70;99.90;;;;;;4980580;28;20235;-53
2021/05/03 09:00:55;;;;;;;5.20;4.70;;;8.70;99.90;;;;;;4976277;28;20239;-52
2021/05/03 09:03:24;;;;;;;7.07;4.97;;;8.70;99.90;;;;;;4984134;28;20239;-51
2021/05/03 09:05:51;;;;;;;4.73;4.23;;;8.60;99.90;;;;;;4981789;28;20589;-52
2021/05/03 09:08:27;;;;;;;4.70;4.30;;;8.60;99.90;;;;;;4989973;28;20326;-51
2021/05/03 09:10:55;;;;;;;5.47;4.40;;;8.50;99.90;;;;;;4987584;28;20230;-51
2021/05/03 09:13:29;;;;;;;4.80;3.97;;;8.50;99.90;;;;;;4985816;28;20596;-51
2021/05/03 09:16:19;;;;;;;4.57;4.10;;;8.60;99.90;;;;;;4980473;28;20247;-51
2021/05/03 09:18:49;;;;;;;5.43;3.53;;;8.80;99.90;;;;;;4985507;28;20234;-51
2021/05/03 09:21:21;;;;;;;4.87;3.63;;;9.20;99.90;;;;;;4982830;28;20633;-51
2021/05/03 09:24:11;;;;;;;3.90;3.60;;;9.60;99.90;;;;;;4985056;28;20252;-51
2021/05/03 09:26:44;;;;;;;4.03;3.73;;;9.80;99.90;;;;;;4982095;28;20235;-51
2021/05/03 09:29:39;;;;;;;5.00;4.27;;;9.80;99.90;;;;;;4984376;28;20527;-51
2021/05/03 09:32:10;;;;;;;4.80;4.27;;;9.90;99.90;;;;;;4980687;28;20236;-51
2021/05/03 09:34:42;;;;;;;4.37;3.97;;;10.10;99.90;;;;;;4981976;28;20231;-53
2021/05/03 09:37:27;;;;;;;4.30;3.90;;;10.40;99.90;;;;;;4984695;28;20246;-51
2021/05/03 09:40:11;;;;;;;4.20;3.80;;;10.40;99.90;;;;;;4984963;28;20244;-54
2021/05/03 09:42:52;;;;;;;4.40;4.00;;;10.40;99.90;;;;;;4988653;28;20230;-51
2021/05/03 09:45:22;;;;;;;4.90;4.40;;;10.40;99.90;;;;;;4987024;28;20250;-51
2021/05/03 09:47:52;;;;;;;5.10;4.70;;;10.40;99.90;;;;;;4984054;28;20353;-51
2021/05/03 09:50:23;;;;;;;5.73;4.83;;;10.20;99.90;;;;;;4980297;28;20294;-52
2021/05/03 09:53:08;;;;;;;5.47;4.97;;;10.30;99.90;;;;;;4982106;28;20262;-51
2021/05/03 09:55:40;;;;;;;4.90;4.50;;;10.50;99.90;;;;;;4978004;28;20235;-52
2021/05/03 09:58:18;;;;;;;4.20;3.90;;;10.90;99.90;;;;;;4978295;28;20260;-51
2021/05/03 10:00:50;;;;;;;4.57;4.10;;;11.20;99.90;;;;;;4978687;28;20244;-52
2021/05/03 10:03:34;;;;;;;3.87;3.40;;;11.20;99.90;;;;;;4979833;28;20251;-51
2021/05/03 10:06:05;;;;;;;3.57;3.27;;;11.10;99.90;;;;;;4983460;28;20569;-51
2021/05/03 10:08:33;;;;;;;4.13;3.80;;;10.80;99.90;;;;;;4977604;28;20236;-51
2021/05/03 10:11:04;;;;;;;4.23;3.83;;;10.70;99.90;;;;;;4980508;28;20615;-50
2021/05/03 10:13:33;;;;;;;4.30;3.90;;;10.50;99.90;;;;;;4981918;28;20338;-51
2021/05/03 10:16:06;;;;;;;4.70;4.00;;;10.60;99.90;;;;;;4982831;28;20268;-50
2021/05/03 10:18:38;;;;;;;4.90;4.50;;;10.60;99.90;;;;;;4984850;28;20234;-49
2021/05/03 10:21:09;;;;;;;4.90;4.50;;;10.40;99.90;;;;;;4991101;28;20742;-50
2021/05/03 10:23:40;;;;;;;4.97;4.47;;;10.60;99.90;;;;;;4976615;28;20258;-50
2021/05/03 10:26:09;;;;;;;4.67;4.20;;;10.60;99.90;;;;;;4978805;28;20304;-50
2021/05/03 10:28:52;;;;;;;5.13;4.73;;;10.70;99.90;;;;;;4985805;28;20315;-50
2021/05/03 10:31:20;;;;;;;5.07;4.60;;;11.20;99.90;;;;;;4986802;28;20430;-50
2021/05/03 10:33:48;;;;;;;4.67;4.27;;;11.90;99.90;;;;;;4981132;28;20723;-51
2021/05/03 10:36:33;;;;;;;4.47;4.17;;;12.10;99.90;;;;;;4982910;28;20302;-50
2021/05/03 10:39:02;;;;;;;4.40;4.10;;;12.10;99.90;;;;;;4985251;28;20234;-50
2021/05/03 10:41:32;;;;;;;4.90;4.50;;;12.10;99.90;;;;;;4985149;28;20240;-51
2021/05/03 10:44:15;;;;;;;5.30;4.90;;;12.20;99.90;;;;;;4977013;28;20260;-53
2021/05/03 10:49:35;;;;;;;6.07;5.53;;;12.40;99.90;;;;;;4981834;28;20234;-50
2021/05/03 10:52:05;;;;;;;5.60;5.20;;;12.00;99.90;;;;;;4979062;28;20236;-53
2021/05/03 10:54:48;;;;;;;5.80;5.30;;;11.90;99.90;;;;;;4977605;28;20246;-51
2021/05/03 10:57:37;;;;;;;5.97;5.47;;;12.00;99.90;;;;;;4985197;28;20596;-51
2021/05/03 11:00:29;;;;;;;5.50;5.07;;;12.30;99.90;;;;;;4983487;28;20249;-50
2021/05/03 11:02:57;;;;;;;6.00;5.50;;;12.30;99.90;;;;;;4976751;28;20624;-50
2021/05/03 11:05:26;;;;;;;5.97;5.47;;;12.00;99.90;;;;;;4986378;28;20356;-50
2021/05/03 11:08:29;;;;;;;6.13;5.63;;;11.90;99.90;;;;;;4985722;28;20752;-51
2021/05/03 11:11:09;;;;;;;6.10;5.67;;;11.70;99.90;;;;;;4984070;28;20248;-50
2021/05/03 11:13:58;;;;;;;6.43;5.80;;;11.50;99.90;;;;;;4980550;28;20599;-50
2021/05/03 11:16:56;;;;;;;6.47;5.87;;;11.40;99.90;;;;;;4985671;28;20260;-50
2021/05/03 11:19:52;;;;;;;6.90;6.37;;;11.60;99.90;;;;;;4982632;28;20255;-51
2021/05/03 11:22:22;;;;;;;7.23;6.60;;;11.60;99.90;;;;;;4984861;28;21197;-51
2021/05/03 11:24:54;;;;;;;7.17;6.57;;;11.40;99.90;;;;;;4984593;28;20672;-50
2021/05/03 11:27:39;;;;;;;7.50;6.90;;;11.30;99.90;;;;;;4988074;28;20229;-51
2021/05/03 11:30:11;;;;;;;7.10;6.50;;;11.40;99.90;;;;;;4984625;28;20316;-50
2021/05/03 11:32:39;;;;;;;7.20;6.50;;;11.40;99.90;;;;;;4982623;28;20241;-51
2021/05/03 11:35:22;;;;;;;7.13;6.53;;;11.40;99.90;;;;;;4981344;28;20237;-50
2021/05/03 11:37:58;;;;;;;8.33;7.57;;;11.50;99.90;;;;;;4980855;28;20257;-50
2021/05/03 11:40:39;;;;;;;9.07;8.27;;;11.50;99.90;;;;;;4987290;28;20245;-51
2021/05/03 11:46:06;;;;;;;8.87;8.17;;;11.40;99.90;;;;;;4938799;29;20317;-51
2021/05/03 11:48:34;;;;;;;10.47;9.57;;;11.40;99.90;;;;;;4953816;28;20231;-51
2021/05/03 11:51:07;;;;;;;10.53;9.53;;;11.30;99.90;;;;;;4959229;28;20281;-50
2021/05/03 11:53:39;;;;;;;12.70;11.60;;;11.30;99.90;;;;;;4962729;28;20241;-50
2021/05/03 11:56:20;;;;;;;12.57;11.57;;;11.10;99.90;;;;;;4962754;28;20241;-51
2021/05/03 11:58:50;;;;;;;12.53;11.40;;;11.10;99.90;;;;;;4957308;28;20603;-50
2021/05/03 12:01:19;;;;;;;11.67;10.67;;;11.20;99.90;;;;;;4956737;28;20237;-51
2021/05/03 12:03:49;;;;;;;11.27;10.37;;;11.10;99.90;;;;;;4962420;28;20324;-51
2021/05/03 12:06:35;;;;;;;11.40;10.40;;;11.10;99.90;;;;;;4955961;28;20766;-50
2021/05/03 12:09:05;;;;;;;10.03;9.13;;;11.00;99.90;;;;;;4957240;28;20260;-50
2021/05/03 12:11:34;;;;;;;9.23;8.23;;;11.00;99.90;;;;;;4963538;28;20246;-51
2021/05/03 12:14:03;;;;;;;9.50;8.70;;;11.00;99.90;;;;;;4959880;28;20238;-50
2021/05/03 12:16:37;;;;;;;10.00;9.10;;;11.30;99.90;;;;;;4960435;28;20971;-50
2021/05/03 12:19:15;;;;;;;9.20;8.50;;;11.40;99.90;;;;;;4968431;28;20701;-51
2021/05/03 12:21:43;;;;;;;8.53;7.83;;;11.60;99.90;;;;;;4959428;28;20353;-51
2021/05/03 12:24:15;;;;;;;8.40;7.60;;;11.60;99.90;;;;;;4979258;28;20255;-51
2021/05/03 12:26:54;;;;;;;8.03;7.40;;;11.80;99.90;;;;;;4965358;28;20249;-52
2021/05/03 12:29:22;;;;;;;8.30;7.57;;;11.90;99.90;;;;;;4977274;28;20249;-51
2021/05/03 12:31:50;;;;;;;8.60;7.80;;;12.10;99.90;;;;;;4975775;28;21914;-51
2021/05/03 12:34:20;;;;;;;8.53;7.83;;;12.10;99.90;;;;;;4978215;28;20249;-52
2021/05/03 12:37:20;;;;;;;8.40;7.63;;;12.30;99.90;;;;;;4985656;28;20233;-51
2021/05/03 12:40:06;;;;;;;8.43;7.73;;;12.50;99.90;;;;;;4929367;29;20265;-51
2021/05/03 12:42:44;;;;;;;9.10;8.30;;;12.50;99.90;;;;;;4976203;28;20244;-51
2021/05/03 12:45:36;;;;;;;8.60;7.80;;;12.60;99.90;;;;;;4978894;28;20241;-51
2021/05/03 12:51:10;;;;;;;8.90;8.10;;;12.50;99.90;;;;;;4971775;28;20241;-51
2021/05/03 12:56:38;;;;;;;9.73;8.83;;;12.60;99.90;;;;;;4987100;28;20323;-51
2021/05/03 12:59:16;;;;;;;10.33;9.23;;;12.40;99.90;;;;;;4989956;28;20300;-51
2021/05/03 13:01:50;;;;;;;10.93;9.87;;;12.40;99.90;;;;;;4986896;28;20232;-50
2021/05/03 13:04:48;;;;;;;10.93;9.27;;;12.40;99.90;;;;;;4985322;28;20246;-52
2021/05/03 13:07:37;;;;;;;11.27;9.37;;;12.40;99.90;;;;;;4985638;28;20602;-50
2021/05/03 13:24:44;;;;;;;9.30;8.40;;;12.70;99.90;;;;;;4986830;28;20646;-52
2021/05/03 13:29:52;;;;;;;8.63;7.73;;;12.90;99.90;;;;;;4975676;28;20281;-50
2021/05/03 13:32:20;;;;;;;10.32;9.43;;;12.80;99.90;;;;;;4974100;28;20525;-50
2021/05/03 13:34:49;;;;;;;9.07;8.27;;;12.70;99.90;;;;;;4977357;28;20229;-51
2021/05/03 13:37:18;;;;;;;10.88;8.98;;;12.80;99.90;;;;;;4978871;28;20479;-50
2021/05/03 13:40:06;;;;;;;12.70;11.40;;;13.10;99.90;;;;;;4972759;28;20690;-50
2021/05/03 13:42:34;;;;;;;11.07;9.70;;;13.30;99.90;;;;;;4977997;28;20325;-51
2021/05/03 13:45:02;;;;;;;11.13;10.03;;;13.20;99.90;;;;;;4976464;28;20245;-51